Nanuet, NY (10954)

6:16 PM EDT on August 27, 2015 (GMT -0400)
West Nyack | | Change Station
CLOSE
Current Station
Personal Weather Station
Location: West Nyack, NY
Elevation: 295 ft
Nearby Weather Stations

Elev 295 ft 41.09 °N, 73.99 °W | Updated 6 minutes ago

Mostly Cloudy
Mostly Cloudy
74.3 °F
Feels Like 77 °F
N
2.2
Wind Variable Wind from West

Today
High -- | Low -- °F
--% Chance of Precip.
Yesterday
High -- | Low -- °F
Precip. -- in
6:17 AM 7:37 PM
Waxing Gibbous, 95% visible
Pressure 30.05 in
Visibility 10.0 miles
Clouds Scattered Clouds 6000 ft
Heat Index 77 °F
Dew Point 58 °F
Humidity 56%
Rainfall 0.00 in
Snow Depth Not available.
UV 1 out of 12
Pollen 10.20 out of 12
Air Quality Not available.
Flu Activity Not available.
METAR KHPN 272156Z 30008KT 10SM SCT060 23/12 A3005 RMK AO2 SLP174 T02330122
Pressure 30.05 in
Visibility 10.0 miles
Clouds Scattered Clouds 6000 ft
Heat Index 77 °F
Dew Point 58 °F
Humidity 56%
Rainfall 0.00 in
Snow Depth Not available.
UV 1 out of 12
Pollen 10.20 out of 12
Air Quality Not available.
Flu Activity Not available.
METAR KHPN 272156Z 30008KT 10SM SCT060 23/12 A3005 RMK AO2 SLP174 T02330122

10-Day Weather Forecast

×

Almanac

Astronomy

Aug. 27, 2015 Rise Set
Actual Time
Civil Twilight
Nautical Twilight
Astronomical Twilight
Moon
Length of Visible Light
Length of Day
Tomorrow will be .
, % of the Moon is Illuminated

Today's Extremes

State Highs State Lows

Community

WunderPhotos

Upload Photos

1,850,250 photos uploaded!

WunderBlogs® & News

Nearby

Air Quality

  Air Quality AQ Index Pollutant
Not available.

Snow Depth

Station Depth Elevation

Earthquake Activity

City Distance Mag. Time & Date
Minimum magnitude displayed is 2.5.

Coastal Water Temperatures

Place Temperature

Stations

Nearby Weather Stations

Station Location Temp. Windchill Dew Point Humidity Wind Precip. Elev Updated Type